sensor_id;sensor_type;location;lat;lon;timestamp;P1;durP1;ratioP1;P2;durP2;ratioP2
2338;SDS011;1180;51.438;6.978;2023-05-28T00:00:06;10.13;;;6.00;;
2338;SDS011;1180;51.438;6.978;2023-05-28T00:02:33;5.37;;;4.63;;
2338;SDS011;1180;51.438;6.978;2023-05-28T00:04:59;6.47;;;4.90;;
2338;SDS011;1180;51.438;6.978;2023-05-28T00:07:25;8.73;;;6.20;;
2338;SDS011;1180;51.438;6.978;2023-05-28T00:09:57;10.50;;;5.53;;
2338;SDS011;1180;51.438;6.978;2023-05-28T00:12:23;6.20;;;5.47;;
2338;SDS011;1180;51.438;6.978;2023-05-28T00:14:49;8.17;;;5.90;;
2338;SDS011;1180;51.438;6.978;2023-05-28T00:17:16;11.23;;;7.03;;
2338;SDS011;1180;51.438;6.978;2023-05-28T00:19:42;7.33;;;5.00;;
2338;SDS011;1180;51.438;6.978;2023-05-28T00:22:08;7.87;;;5.17;;
2338;SDS011;1180;51.438;6.978;2023-05-28T00:24:35;7.83;;;5.37;;
2338;SDS011;1180;51.438;6.978;2023-05-28T00:27:01;10.20;;;6.07;;
2338;SDS011;1180;51.438;6.978;2023-05-28T00:29:28;12.80;;;6.50;;
2338;SDS011;1180;51.438;6.978;2023-05-28T00:31:55;6.63;;;5.60;;
2338;SDS011;1180;51.438;6.978;2023-05-28T00:34:24;9.73;;;5.23;;
2338;SDS011;1180;51.438;6.978;2023-05-28T00:36:51;11.83;;;6.23;;
2338;SDS011;1180;51.438;6.978;2023-05-28T00:39:17;6.27;;;5.67;;
2338;SDS011;1180;51.438;6.978;2023-05-28T00:41:43;10.07;;;6.17;;
2338;SDS011;1180;51.438;6.978;2023-05-28T00:44:10;8.63;;;5.50;;
2338;SDS011;1180;51.438;6.978;2023-05-28T00:46:36;10.53;;;6.83;;
2338;SDS011;1180;51.438;6.978;2023-05-28T00:49:04;8.23;;;5.80;;
2338;SDS011;1180;51.438;6.978;2023-05-28T00:51:30;9.27;;;6.07;;
2338;SDS011;1180;51.438;6.978;2023-05-28T00:53:57;9.50;;;6.43;;
2338;SDS011;1180;51.438;6.978;2023-05-28T00:56:23;8.57;;;5.70;;
2338;SDS011;1180;51.438;6.978;2023-05-28T00:58:49;9.10;;;5.73;;
2338;SDS011;1180;51.438;6.978;2023-05-28T01:01:16;11.47;;;5.73;;
2338;SDS011;1180;51.438;6.978;2023-05-28T01:03:43;11.40;;;6.60;;
2338;SDS011;1180;51.438;6.978;2023-05-28T01:06:12;12.67;;;6.77;;
2338;SDS011;1180;51.438;6.978;2023-05-28T01:08:39;9.40;;;6.87;;
2338;SDS011;1180;51.438;6.978;2023-05-28T01:11:09;12.70;;;5.90;;
2338;SDS011;1180;51.438;6.978;2023-05-28T01:13:38;10.83;;;6.30;;
2338;SDS011;1180;51.438;6.978;2023-05-28T01:16:05;7.73;;;5.70;;
2338;SDS011;1180;51.438;6.978;2023-05-28T01:18:32;11.40;;;5.63;;
2338;SDS011;1180;51.438;6.978;2023-05-28T01:21:01;11.43;;;7.17;;
2338;SDS011;1180;51.438;6.978;2023-05-28T01:23:28;9.57;;;6.03;;
2338;SDS011;1180;51.438;6.978;2023-05-28T01:25:54;10.10;;;6.40;;
2338;SDS011;1180;51.438;6.978;2023-05-28T01:28:21;7.40;;;5.97;;
2338;SDS011;1180;51.438;6.978;2023-05-28T01:30:47;11.80;;;6.10;;
2338;SDS011;1180;51.438;6.978;2023-05-28T01:33:13;10.90;;;6.70;;
2338;SDS011;1180;51.438;6.978;2023-05-28T01:35:40;10.53;;;6.30;;
2338;SDS011;1180;51.438;6.978;2023-05-28T01:38:07;10.50;;;6.73;;
2338;SDS011;1180;51.438;6.978;2023-05-28T01:40:36;6.90;;;6.17;;
2338;SDS011;1180;51.438;6.978;2023-05-28T01:43:03;7.37;;;6.17;;
2338;SDS011;1180;51.438;6.978;2023-05-28T01:45:29;8.60;;;5.93;;
2338;SDS011;1180;51.438;6.978;2023-05-28T01:47:56;10.17;;;6.40;;
2338;SDS011;1180;51.438;6.978;2023-05-28T01:50:22;8.33;;;6.13;;
2338;SDS011;1180;51.438;6.978;2023-05-28T01:52:49;11.33;;;6.30;;
2338;SDS011;1180;51.438;6.978;2023-05-28T01:55:15;10.23;;;8.07;;
2338;SDS011;1180;51.438;6.978;2023-05-28T01:57:41;8.93;;;5.97;;
2338;SDS011;1180;51.438;6.978;2023-05-28T02:00:07;13.27;;;5.97;;
2338;SDS011;1180;51.438;6.978;2023-05-28T02:02:34;9.70;;;6.70;;
2338;SDS011;1180;51.438;6.978;2023-05-28T02:05:01;10.63;;;7.33;;
2338;SDS011;1180;51.438;6.978;2023-05-28T02:07:26;8.73;;;6.60;;
2338;SDS011;1180;51.438;6.978;2023-05-28T02:09:52;12.20;;;6.67;;
2338;SDS011;1180;51.438;6.978;2023-05-28T02:12:18;8.20;;;6.90;;
2338;SDS011;1180;51.438;6.978;2023-05-28T02:14:44;10.30;;;6.87;;
2338;SDS011;1180;51.438;6.978;2023-05-28T02:17:10;13.20;;;8.80;;
2338;SDS011;1180;51.438;6.978;2023-05-28T02:19:37;9.67;;;7.93;;
2338;SDS011;1180;51.438;6.978;2023-05-28T02:22:03;10.77;;;7.20;;
2338;SDS011;1180;51.438;6.978;2023-05-28T02:24:35;11.07;;;7.60;;
2338;SDS011;1180;51.438;6.978;2023-05-28T02:27:01;11.20;;;7.13;;
2338;SDS011;1180;51.438;6.978;2023-05-28T02:29:29;10.80;;;6.97;;
2338;SDS011;1180;51.438;6.978;2023-05-28T02:31:54;8.03;;;6.83;;
2338;SDS011;1180;51.438;6.978;2023-05-28T02:34:20;9.20;;;7.00;;
2338;SDS011;1180;51.438;6.978;2023-05-28T02:36:46;10.47;;;7.70;;
2338;SDS011;1180;51.438;6.978;2023-05-28T02:39:12;9.33;;;6.80;;
2338;SDS011;1180;51.438;6.978;2023-05-28T02:41:38;8.60;;;6.03;;
2338;SDS011;1180;51.438;6.978;2023-05-28T02:44:08;10.70;;;6.93;;
2338;SDS011;1180;51.438;6.978;2023-05-28T02:46:34;11.33;;;7.17;;
2338;SDS011;1180;51.438;6.978;2023-05-28T02:48:59;7.43;;;6.17;;
2338;SDS011;1180;51.438;6.978;2023-05-28T02:51:25;9.33;;;6.60;;
2338;SDS011;1180;51.438;6.978;2023-05-28T02:53:51;12.23;;;7.90;;
2338;SDS011;1180;51.438;6.978;2023-05-28T02:56:17;9.80;;;7.87;;
2338;SDS011;1180;51.438;6.978;2023-05-28T02:58:42;7.97;;;7.20;;
2338;SDS011;1180;51.438;6.978;2023-05-28T03:01:08;10.53;;;7.03;;
2338;SDS011;1180;51.438;6.978;2023-05-28T03:03:35;10.13;;;7.30;;
2338;SDS011;1180;51.438;6.978;2023-05-28T03:06:01;7.73;;;6.73;;
2338;SDS011;1180;51.438;6.978;2023-05-28T03:08:27;9.07;;;6.60;;
2338;SDS011;1180;51.438;6.978;2023-05-28T03:10:53;11.87;;;6.73;;
2338;SDS011;1180;51.438;6.978;2023-05-28T03:13:19;11.30;;;7.10;;
2338;SDS011;1180;51.438;6.978;2023-05-28T03:15:45;11.80;;;7.80;;
2338;SDS011;1180;51.438;6.978;2023-05-28T03:18:11;14.10;;;8.10;;
2338;SDS011;1180;51.438;6.978;2023-05-28T03:20:36;10.33;;;8.70;;
2338;SDS011;1180;51.438;6.978;2023-05-28T03:23:03;10.27;;;7.50;;
2338;SDS011;1180;51.438;6.978;2023-05-28T03:25:29;20.13;;;8.30;;
2338;SDS011;1180;51.438;6.978;2023-05-28T03:27:55;13.00;;;8.27;;
2338;SDS011;1180;51.438;6.978;2023-05-28T03:30:20;10.57;;;7.47;;
2338;SDS011;1180;51.438;6.978;2023-05-28T03:32:47;11.70;;;7.50;;
2338;SDS011;1180;51.438;6.978;2023-05-28T03:35:14;9.73;;;7.97;;
2338;SDS011;1180;51.438;6.978;2023-05-28T03:37:40;12.77;;;8.07;;
2338;SDS011;1180;51.438;6.978;2023-05-28T03:40:06;10.80;;;8.37;;
2338;SDS011;1180;51.438;6.978;2023-05-28T03:42:33;8.53;;;6.90;;
2338;SDS011;1180;51.438;6.978;2023-05-28T03:45:00;11.77;;;8.13;;
2338;SDS011;1180;51.438;6.978;2023-05-28T03:47:26;15.07;;;7.07;;
2338;SDS011;1180;51.438;6.978;2023-05-28T03:49:52;12.93;;;8.60;;
2338;SDS011;1180;51.438;6.978;2023-05-28T03:52:18;14.93;;;8.63;;
2338;SDS011;1180;51.438;6.978;2023-05-28T03:54:43;16.03;;;8.67;;
2338;SDS011;1180;51.438;6.978;2023-05-28T03:57:09;13.87;;;8.43;;
2338;SDS011;1180;51.438;6.978;2023-05-28T03:59:36;15.37;;;7.67;;
2338;SDS011;1180;51.438;6.978;2023-05-28T04:02:01;12.77;;;6.20;;
2338;SDS011;1180;51.438;6.978;2023-05-28T04:04:27;14.80;;;8.70;;
2338;SDS011;1180;51.438;6.978;2023-05-28T04:06:53;10.97;;;7.87;;
2338;SDS011;1180;51.438;6.978;2023-05-28T04:09:18;14.10;;;7.53;;
2338;SDS011;1180;51.438;6.978;2023-05-28T04:11:44;14.60;;;7.77;;
2338;SDS011;1180;51.438;6.978;2023-05-28T04:14:10;13.60;;;7.67;;
2338;SDS011;1180;51.438;6.978;2023-05-28T04:16:36;13.53;;;8.27;;
2338;SDS011;1180;51.438;6.978;2023-05-28T04:19:02;11.33;;;9.13;;
2338;SDS011;1180;51.438;6.978;2023-05-28T04:21:28;9.43;;;8.40;;
2338;SDS011;1180;51.438;6.978;2023-05-28T04:23:54;10.37;;;7.57;;
2338;SDS011;1180;51.438;6.978;2023-05-28T04:26:20;9.50;;;8.13;;
2338;SDS011;1180;51.438;6.978;2023-05-28T04:28:47;14.67;;;8.37;;
2338;SDS011;1180;51.438;6.978;2023-05-28T04:31:13;10.70;;;7.90;;
2338;SDS011;1180;51.438;6.978;2023-05-28T04:33:39;12.33;;;9.97;;
2338;SDS011;1180;51.438;6.978;2023-05-28T04:36:05;15.10;;;7.70;;
2338;SDS011;1180;51.438;6.978;2023-05-28T04:38:33;13.73;;;9.80;;
2338;SDS011;1180;51.438;6.978;2023-05-28T04:40:59;11.37;;;6.70;;
2338;SDS011;1180;51.438;6.978;2023-05-28T04:43:30;10.93;;;7.80;;
2338;SDS011;1180;51.438;6.978;2023-05-28T04:45:56;10.80;;;7.60;;
2338;SDS011;1180;51.438;6.978;2023-05-28T04:48:24;10.03;;;7.80;;
2338;SDS011;1180;51.438;6.978;2023-05-28T04:50:50;11.70;;;8.73;;
2338;SDS011;1180;51.438;6.978;2023-05-28T04:53:16;13.50;;;7.57;;
2338;SDS011;1180;51.438;6.978;2023-05-28T04:55:42;11.70;;;8.13;;
2338;SDS011;1180;51.438;6.978;2023-05-28T04:58:09;10.00;;;8.43;;
2338;SDS011;1180;51.438;6.978;2023-05-28T05:00:35;11.50;;;7.63;;
2338;SDS011;1180;51.438;6.978;2023-05-28T05:03:00;12.93;;;8.57;;
2338;SDS011;1180;51.438;6.978;2023-05-28T05:05:28;10.57;;;7.53;;
2338;SDS011;1180;51.438;6.978;2023-05-28T05:07:54;9.97;;;8.20;;
2338;SDS011;1180;51.438;6.978;2023-05-28T05:10:20;9.70;;;7.97;;
2338;SDS011;1180;51.438;6.978;2023-05-28T05:12:45;12.10;;;8.23;;
2338;SDS011;1180;51.438;6.978;2023-05-28T05:15:11;15.47;;;9.53;;
2338;SDS011;1180;51.438;6.978;2023-05-28T05:17:37;10.37;;;8.90;;
2338;SDS011;1180;51.438;6.978;2023-05-28T05:20:03;11.40;;;7.73;;
2338;SDS011;1180;51.438;6.978;2023-05-28T05:22:30;9.57;;;7.80;;
2338;SDS011;1180;51.438;6.978;2023-05-28T05:24:56;11.87;;;9.03;;
2338;SDS011;1180;51.438;6.978;2023-05-28T05:27:22;13.83;;;9.60;;
2338;SDS011;1180;51.438;6.978;2023-05-28T05:29:47;11.30;;;8.63;;
2338;SDS011;1180;51.438;6.978;2023-05-28T05:32:13;21.57;;;9.93;;
2338;SDS011;1180;51.438;6.978;2023-05-28T05:34:39;11.73;;;8.47;;
2338;SDS011;1180;51.438;6.978;2023-05-28T05:37:05;16.53;;;11.27;;
2338;SDS011;1180;51.438;6.978;2023-05-28T05:39:31;15.00;;;8.83;;
2338;SDS011;1180;51.438;6.978;2023-05-28T05:41:57;13.70;;;9.87;;
2338;SDS011;1180;51.438;6.978;2023-05-28T05:44:23;10.97;;;8.80;;
2338;SDS011;1180;51.438;6.978;2023-05-28T05:46:48;10.67;;;9.00;;
2338;SDS011;1180;51.438;6.978;2023-05-28T05:49:14;12.80;;;8.90;;
2338;SDS011;1180;51.438;6.978;2023-05-28T05:51:40;10.87;;;8.63;;
2338;SDS011;1180;51.438;6.978;2023-05-28T05:54:06;14.00;;;9.50;;
2338;SDS011;1180;51.438;6.978;2023-05-28T05:56:32;11.73;;;8.53;;
2338;SDS011;1180;51.438;6.978;2023-05-28T05:58:58;9.90;;;7.40;;
2338;SDS011;1180;51.438;6.978;2023-05-28T06:01:24;16.83;;;9.33;;
2338;SDS011;1180;51.438;6.978;2023-05-28T06:03:52;15.53;;;10.20;;
2338;SDS011;1180;51.438;6.978;2023-05-28T06:06:18;12.90;;;6.40;;
2338;SDS011;1180;51.438;6.978;2023-05-28T06:08:44;9.83;;;8.07;;
2338;SDS011;1180;51.438;6.978;2023-05-28T06:11:10;12.30;;;9.43;;
2338;SDS011;1180;51.438;6.978;2023-05-28T06:13:36;10.77;;;8.27;;
2338;SDS011;1180;51.438;6.978;2023-05-28T06:16:02;13.03;;;8.40;;
2338;SDS011;1180;51.438;6.978;2023-05-28T06:18:32;10.57;;;7.90;;
2338;SDS011;1180;51.438;6.978;2023-05-28T06:21:00;10.93;;;8.30;;
2338;SDS011;1180;51.438;6.978;2023-05-28T06:23:25;10.93;;;8.80;;
2338;SDS011;1180;51.438;6.978;2023-05-28T06:25:51;13.73;;;10.73;;
2338;SDS011;1180;51.438;6.978;2023-05-28T06:28:17;10.47;;;8.00;;
2338;SDS011;1180;51.438;6.978;2023-05-28T06:30:43;12.10;;;9.80;;
2338;SDS011;1180;51.438;6.978;2023-05-28T06:33:09;12.73;;;9.73;;
2338;SDS011;1180;51.438;6.978;2023-05-28T06:35:35;15.20;;;8.80;;
2338;SDS011;1180;51.438;6.978;2023-05-28T06:38:01;16.70;;;9.23;;
2338;SDS011;1180;51.438;6.978;2023-05-28T06:40:28;15.23;;;9.03;;
2338;SDS011;1180;51.438;6.978;2023-05-28T06:42:54;16.43;;;8.90;;
2338;SDS011;1180;51.438;6.978;2023-05-28T06:45:20;17.63;;;8.50;;
2338;SDS011;1180;51.438;6.978;2023-05-28T06:47:46;10.47;;;8.50;;
2338;SDS011;1180;51.438;6.978;2023-05-28T06:50:13;10.20;;;7.30;;
2338;SDS011;1180;51.438;6.978;2023-05-28T06:52:39;9.90;;;7.70;;
2338;SDS011;1180;51.438;6.978;2023-05-28T06:55:05;8.10;;;7.30;;
2338;SDS011;1180;51.438;6.978;2023-05-28T06:57:34;14.13;;;8.57;;
2338;SDS011;1180;51.438;6.978;2023-05-28T07:00:02;12.67;;;7.50;;
2338;SDS011;1180;51.438;6.978;2023-05-28T07:02:35;7.50;;;6.70;;
2338;SDS011;1180;51.438;6.978;2023-05-28T07:05:01;11.80;;;7.47;;
2338;SDS011;1180;51.438;6.978;2023-05-28T07:07:29;9.53;;;6.70;;
2338;SDS011;1180;51.438;6.978;2023-05-28T07:09:56;13.27;;;8.10;;
2338;SDS011;1180;51.438;6.978;2023-05-28T07:12:21;9.47;;;6.40;;
2338;SDS011;1180;51.438;6.978;2023-05-28T07:14:47;9.33;;;6.70;;
2338;SDS011;1180;51.438;6.978;2023-05-28T07:17:13;10.67;;;8.40;;
2338;SDS011;1180;51.438;6.978;2023-05-28T07:19:39;10.00;;;6.00;;
2338;SDS011;1180;51.438;6.978;2023-05-28T07:22:05;10.13;;;6.40;;
2338;SDS011;1180;51.438;6.978;2023-05-28T07:24:31;10.20;;;6.67;;
2338;SDS011;1180;51.438;6.978;2023-05-28T07:26:57;10.20;;;6.80;;
2338;SDS011;1180;51.438;6.978;2023-05-28T07:29:23;8.23;;;5.67;;
2338;SDS011;1180;51.438;6.978;2023-05-28T07:31:48;10.87;;;6.93;;
2338;SDS011;1180;51.438;6.978;2023-05-28T07:34:14;9.57;;;6.20;;
2338;SDS011;1180;51.438;6.978;2023-05-28T07:36:40;7.17;;;5.60;;
2338;SDS011;1180;51.438;6.978;2023-05-28T07:39:06;9.17;;;6.37;;
2338;SDS011;1180;51.438;6.978;2023-05-28T07:41:32;8.20;;;6.50;;
2338;SDS011;1180;51.438;6.978;2023-05-28T07:44:00;8.13;;;5.33;;
2338;SDS011;1180;51.438;6.978;2023-05-28T07:46:28;9.23;;;5.83;;
2338;SDS011;1180;51.438;6.978;2023-05-28T07:48:55;10.10;;;5.30;;
2338;SDS011;1180;51.438;6.978;2023-05-28T07:51:20;7.40;;;4.80;;
2338;SDS011;1180;51.438;6.978;2023-05-28T07:53:47;7.87;;;5.17;;
2338;SDS011;1180;51.438;6.978;2023-05-28T07:56:16;8.30;;;5.50;;
2338;SDS011;1180;51.438;6.978;2023-05-28T07:58:44;8.73;;;5.47;;
2338;SDS011;1180;51.438;6.978;2023-05-28T08:01:10;18.00;;;5.47;;
2338;SDS011;1180;51.438;6.978;2023-05-28T08:03:36;8.37;;;5.00;;
2338;SDS011;1180;51.438;6.978;2023-05-28T08:06:02;6.17;;;5.23;;
2338;SDS011;1180;51.438;6.978;2023-05-28T08:08:28;14.60;;;4.60;;
2338;SDS011;1180;51.438;6.978;2023-05-28T08:10:54;9.07;;;5.40;;
2338;SDS011;1180;51.438;6.978;2023-05-28T08:13:20;8.07;;;5.00;;
2338;SDS011;1180;51.438;6.978;2023-05-28T08:15:47;6.37;;;4.47;;
2338;SDS011;1180;51.438;6.978;2023-05-28T08:18:13;7.00;;;4.87;;
2338;SDS011;1180;51.438;6.978;2023-05-28T08:20:38;9.53;;;5.40;;
2338;SDS011;1180;51.438;6.978;2023-05-28T08:23:05;9.90;;;5.53;;
2338;SDS011;1180;51.438;6.978;2023-05-28T08:25:32;10.03;;;4.63;;
2338;SDS011;1180;51.438;6.978;2023-05-28T08:27:58;6.13;;;4.57;;
2338;SDS011;1180;51.438;6.978;2023-05-28T08:30:24;8.17;;;5.37;;
2338;SDS011;1180;51.438;6.978;2023-05-28T08:32:50;7.07;;;4.13;;
2338;SDS011;1180;51.438;6.978;2023-05-28T08:35:16;9.63;;;4.70;;
2338;SDS011;1180;51.438;6.978;2023-05-28T08:37:42;7.03;;;4.20;;
2338;SDS011;1180;51.438;6.978;2023-05-28T08:40:07;7.33;;;4.00;;
2338;SDS011;1180;51.438;6.978;2023-05-28T08:42:36;4.80;;;3.80;;
2338;SDS011;1180;51.438;6.978;2023-05-28T08:45:03;6.83;;;4.77;;
2338;SDS011;1180;51.438;6.978;2023-05-28T08:47:32;6.03;;;4.17;;
2338;SDS011;1180;51.438;6.978;2023-05-28T08:49:59;7.53;;;4.60;;
2338;SDS011;1180;51.438;6.978;2023-05-28T08:52:29;7.63;;;4.50;;
2338;SDS011;1180;51.438;6.978;2023-05-28T08:54:57;6.77;;;4.10;;
2338;SDS011;1180;51.438;6.978;2023-05-28T08:57:29;5.43;;;3.77;;
2338;SDS011;1180;51.438;6.978;2023-05-28T08:59:55;10.23;;;4.53;;
2338;SDS011;1180;51.438;6.978;2023-05-28T09:02:25;6.43;;;4.67;;
2338;SDS011;1180;51.438;6.978;2023-05-28T09:04:51;8.07;;;4.10;;
2338;SDS011;1180;51.438;6.978;2023-05-28T09:07:17;5.10;;;3.70;;
2338;SDS011;1180;51.438;6.978;2023-05-28T09:09:42;5.83;;;4.30;;
2338;SDS011;1180;51.438;6.978;2023-05-28T09:12:12;10.47;;;5.20;;
2338;SDS011;1180;51.438;6.978;2023-05-28T09:14:39;6.30;;;4.47;;
2338;SDS011;1180;51.438;6.978;2023-05-28T09:17:06;4.67;;;3.57;;
2338;SDS011;1180;51.438;6.978;2023-05-28T09:19:35;5.60;;;4.03;;
2338;SDS011;1180;51.438;6.978;2023-05-28T09:22:02;7.93;;;4.10;;
2338;SDS011;1180;51.438;6.978;2023-05-28T09:24:29;10.30;;;4.53;;
2338;SDS011;1180;51.438;6.978;2023-05-28T09:26:56;6.87;;;3.80;;
2338;SDS011;1180;51.438;6.978;2023-05-28T09:29:22;5.03;;;3.90;;
2338;SDS011;1180;51.438;6.978;2023-05-28T09:31:56;4.80;;;4.03;;
2338;SDS011;1180;51.438;6.978;2023-05-28T09:34:29;6.90;;;4.60;;
2338;SDS011;1180;51.438;6.978;2023-05-28T09:39:26;5.50;;;3.80;;
2338;SDS011;1180;51.438;6.978;2023-05-28T09:41:59;4.80;;;3.47;;
2338;SDS011;1180;51.438;6.978;2023-05-28T09:44:35;6.90;;;3.70;;
2338;SDS011;1180;51.438;6.978;2023-05-28T09:47:16;7.17;;;4.23;;
2338;SDS011;1180;51.438;6.978;2023-05-28T09:49:43;5.70;;;3.47;;
2338;SDS011;1180;51.438;6.978;2023-05-28T09:52:13;7.17;;;4.03;;
2338;SDS011;1180;51.438;6.978;2023-05-28T09:54:43;7.77;;;4.07;;
2338;SDS011;1180;51.438;6.978;2023-05-28T09:57:15;6.53;;;4.03;;
2338;SDS011;1180;51.438;6.978;2023-05-28T09:59:48;8.43;;;4.33;;
2338;SDS011;1180;51.438;6.978;2023-05-28T10:02:28;6.80;;;4.30;;
2338;SDS011;1180;51.438;6.978;2023-05-28T10:05:10;5.50;;;4.27;;
2338;SDS011;1180;51.438;6.978;2023-05-28T10:07:38;6.87;;;4.00;;
2338;SDS011;1180;51.438;6.978;2023-05-28T10:10:09;4.97;;;3.53;;
2338;SDS011;1180;51.438;6.978;2023-05-28T10:12:37;6.53;;;3.73;;
2338;SDS011;1180;51.438;6.978;2023-05-28T10:15:06;5.73;;;3.50;;
2338;SDS011;1180;51.438;6.978;2023-05-28T10:17:32;5.37;;;3.70;;
2338;SDS011;1180;51.438;6.978;2023-05-28T10:19:59;6.03;;;3.40;;
2338;SDS011;1180;51.438;6.978;2023-05-28T10:22:25;8.33;;;4.10;;
2338;SDS011;1180;51.438;6.978;2023-05-28T10:24:51;6.07;;;3.60;;
2338;SDS011;1180;51.438;6.978;2023-05-28T10:27:17;7.60;;;3.47;;
2338;SDS011;1180;51.438;6.978;2023-05-28T10:29:44;4.47;;;3.20;;
2338;SDS011;1180;51.438;6.978;2023-05-28T10:32:16;4.80;;;3.07;;
2338;SDS011;1180;51.438;6.978;2023-05-28T10:34:43;6.83;;;3.90;;
2338;SDS011;1180;51.438;6.978;2023-05-28T10:37:10;7.20;;;3.60;;
2338;SDS011;1180;51.438;6.978;2023-05-28T10:39:42;6.33;;;3.80;;
2338;SDS011;1180;51.438;6.978;2023-05-28T10:42:13;7.60;;;4.27;;
2338;SDS011;1180;51.438;6.978;2023-05-28T10:44:51;4.53;;;3.47;;
2338;SDS011;1180;51.438;6.978;2023-05-28T10:47:35;5.60;;;3.50;;
2338;SDS011;1180;51.438;6.978;2023-05-28T10:52:36;5.00;;;3.40;;
2338;SDS011;1180;51.438;6.978;2023-05-28T10:55:02;4.73;;;3.27;;
2338;SDS011;1180;51.438;6.978;2023-05-28T10:57:39;4.73;;;3.70;;
2338;SDS011;1180;51.438;6.978;2023-05-28T11:00:07;4.63;;;2.83;;
2338;SDS011;1180;51.438;6.978;2023-05-28T11:02:38;4.97;;;3.87;;
2338;SDS011;1180;51.438;6.978;2023-05-28T11:05:06;4.20;;;3.30;;
2338;SDS011;1180;51.438;6.978;2023-05-28T11:07:32;6.83;;;3.90;;
2338;SDS011;1180;51.438;6.978;2023-05-28T11:10:01;3.23;;;2.93;;
2338;SDS011;1180;51.438;6.978;2023-05-28T11:12:30;4.10;;;3.23;;
2338;SDS011;1180;51.438;6.978;2023-05-28T11:14:57;4.80;;;3.10;;
2338;SDS011;1180;51.438;6.978;2023-05-28T11:17:23;4.47;;;3.60;;
2338;SDS011;1180;51.438;6.978;2023-05-28T11:19:50;4.63;;;3.30;;
2338;SDS011;1180;51.438;6.978;2023-05-28T11:22:19;5.60;;;3.47;;
2338;SDS011;1180;51.438;6.978;2023-05-28T11:25:04;6.10;;;3.43;;
2338;SDS011;1180;51.438;6.978;2023-05-28T11:27:32;4.77;;;3.83;;
2338;SDS011;1180;51.438;6.978;2023-05-28T11:30:00;6.63;;;3.50;;
2338;SDS011;1180;51.438;6.978;2023-05-28T11:32:30;10.90;;;3.50;;
2338;SDS011;1180;51.438;6.978;2023-05-28T11:34:58;5.73;;;3.60;;
2338;SDS011;1180;51.438;6.978;2023-05-28T11:37:25;5.10;;;3.23;;
2338;SDS011;1180;51.438;6.978;2023-05-28T11:39:52;5.40;;;3.40;;
2338;SDS011;1180;51.438;6.978;2023-05-28T11:42:20;8.03;;;3.90;;
2338;SDS011;1180;51.438;6.978;2023-05-28T11:44:47;5.90;;;3.47;;
2338;SDS011;1180;51.438;6.978;2023-05-28T11:47:15;5.87;;;3.40;;
2338;SDS011;1180;51.438;6.978;2023-05-28T11:49:41;3.53;;;2.90;;
2338;SDS011;1180;51.438;6.978;2023-05-28T11:52:20;2.97;;;2.63;;
2338;SDS011;1180;51.438;6.978;2023-05-28T11:54:51;4.60;;;2.93;;
2338;SDS011;1180;51.438;6.978;2023-05-28T11:57:26;9.37;;;4.10;;
2338;SDS011;1180;51.438;6.978;2023-05-28T12:00:03;5.37;;;3.13;;
2338;SDS011;1180;51.438;6.978;2023-05-28T12:02:44;7.83;;;3.13;;
2338;SDS011;1180;51.438;6.978;2023-05-28T12:05:14;5.27;;;3.30;;
2338;SDS011;1180;51.438;6.978;2023-05-28T12:07:44;5.17;;;3.73;;
2338;SDS011;1180;51.438;6.978;2023-05-28T12:10:12;5.90;;;3.50;;
2338;SDS011;1180;51.438;6.978;2023-05-28T12:12:40;5.80;;;3.43;;
2338;SDS011;1180;51.438;6.978;2023-05-28T12:15:08;5.77;;;3.70;;
2338;SDS011;1180;51.438;6.978;2023-05-28T12:17:35;4.90;;;3.63;;
2338;SDS011;1180;51.438;6.978;2023-05-28T12:22:38;4.63;;;3.50;;
2338;SDS011;1180;51.438;6.978;2023-05-28T12:25:05;6.77;;;4.03;;
2338;SDS011;1180;51.438;6.978;2023-05-28T12:27:32;11.70;;;3.63;;
2338;SDS011;1180;51.438;6.978;2023-05-28T12:29:58;6.63;;;3.70;;
2338;SDS011;1180;51.438;6.978;2023-05-28T12:32:23;8.63;;;3.73;;
2338;SDS011;1180;51.438;6.978;2023-05-28T12:34:49;4.93;;;3.53;;
2338;SDS011;1180;51.438;6.978;2023-05-28T12:37:17;4.10;;;3.23;;
2338;SDS011;1180;51.438;6.978;2023-05-28T12:39:44;3.30;;;2.70;;
2338;SDS011;1180;51.438;6.978;2023-05-28T12:42:10;4.17;;;2.83;;
2338;SDS011;1180;51.438;6.978;2023-05-28T12:44:36;3.47;;;2.77;;
2338;SDS011;1180;51.438;6.978;2023-05-28T12:47:02;3.97;;;3.50;;
2338;SDS011;1180;51.438;6.978;2023-05-28T12:49:27;8.67;;;4.13;;
2338;SDS011;1180;51.438;6.978;2023-05-28T12:51:53;4.90;;;3.17;;
2338;SDS011;1180;51.438;6.978;2023-05-28T12:54:19;4.37;;;3.50;;
2338;SDS011;1180;51.438;6.978;2023-05-28T12:56:45;3.83;;;3.30;;
2338;SDS011;1180;51.438;6.978;2023-05-28T12:59:20;8.17;;;4.07;;
2338;SDS011;1180;51.438;6.978;2023-05-28T13:01:47;4.70;;;2.93;;
2338;SDS011;1180;51.438;6.978;2023-05-28T13:04:13;5.27;;;3.20;;
2338;SDS011;1180;51.438;6.978;2023-05-28T13:06:40;6.50;;;3.03;;
2338;SDS011;1180;51.438;6.978;2023-05-28T13:09:06;6.43;;;3.20;;
2338;SDS011;1180;51.438;6.978;2023-05-28T13:11:32;5.90;;;3.57;;
2338;SDS011;1180;51.438;6.978;2023-05-28T13:13:58;5.93;;;3.60;;
2338;SDS011;1180;51.438;6.978;2023-05-28T13:16:23;6.07;;;3.57;;
2338;SDS011;1180;51.438;6.978;2023-05-28T13:18:49;4.57;;;3.00;;
2338;SDS011;1180;51.438;6.978;2023-05-28T13:21:15;3.77;;;3.47;;
2338;SDS011;1180;51.438;6.978;2023-05-28T13:23:41;5.70;;;3.40;;
2338;SDS011;1180;51.438;6.978;2023-05-28T13:26:07;4.30;;;2.80;;
2338;SDS011;1180;51.438;6.978;2023-05-28T13:28:32;5.97;;;3.27;;
2338;SDS011;1180;51.438;6.978;2023-05-28T13:30:58;6.03;;;3.00;;
2338;SDS011;1180;51.438;6.978;2023-05-28T13:33:24;6.30;;;4.93;;
2338;SDS011;1180;51.438;6.978;2023-05-28T13:35:50;3.20;;;2.90;;
2338;SDS011;1180;51.438;6.978;2023-05-28T13:38:16;5.40;;;3.13;;
2338;SDS011;1180;51.438;6.978;2023-05-28T13:40:42;4.30;;;3.00;;
2338;SDS011;1180;51.438;6.978;2023-05-28T13:43:07;5.50;;;2.90;;
2338;SDS011;1180;51.438;6.978;2023-05-28T13:45:33;4.23;;;3.00;;
2338;SDS011;1180;51.438;6.978;2023-05-28T13:47:59;7.20;;;3.30;;
2338;SDS011;1180;51.438;6.978;2023-05-28T13:50:27;4.73;;;2.80;;
2338;SDS011;1180;51.438;6.978;2023-05-28T13:52:52;5.40;;;3.30;;
2338;SDS011;1180;51.438;6.978;2023-05-28T13:55:18;6.00;;;3.60;;
2338;SDS011;1180;51.438;6.978;2023-05-28T13:57:44;4.83;;;3.10;;
2338;SDS011;1180;51.438;6.978;2023-05-28T14:00:09;5.03;;;3.87;;
2338;SDS011;1180;51.438;6.978;2023-05-28T14:02:37;3.20;;;2.90;;
2338;SDS011;1180;51.438;6.978;2023-05-28T14:05:02;6.30;;;3.33;;
2338;SDS011;1180;51.438;6.978;2023-05-28T14:07:28;5.90;;;3.10;;
2338;SDS011;1180;51.438;6.978;2023-05-28T14:09:54;4.10;;;3.10;;
2338;SDS011;1180;51.438;6.978;2023-05-28T14:12:20;7.57;;;3.27;;
2338;SDS011;1180;51.438;6.978;2023-05-28T14:14:45;8.30;;;5.13;;
2338;SDS011;1180;51.438;6.978;2023-05-28T14:17:11;4.63;;;2.97;;
2338;SDS011;1180;51.438;6.978;2023-05-28T14:19:36;4.40;;;3.33;;
2338;SDS011;1180;51.438;6.978;2023-05-28T14:22:02;4.00;;;2.73;;
2338;SDS011;1180;51.438;6.978;2023-05-28T14:24:28;4.77;;;3.33;;
2338;SDS011;1180;51.438;6.978;2023-05-28T14:26:53;3.33;;;2.47;;
2338;SDS011;1180;51.438;6.978;2023-05-28T14:29:18;6.10;;;2.70;;
2338;SDS011;1180;51.438;6.978;2023-05-28T14:31:44;3.93;;;3.20;;
2338;SDS011;1180;51.438;6.978;2023-05-28T14:34:09;3.00;;;2.10;;
2338;SDS011;1180;51.438;6.978;2023-05-28T14:36:35;4.60;;;2.97;;
2338;SDS011;1180;51.438;6.978;2023-05-28T14:39:00;8.83;;;3.37;;
2338;SDS011;1180;51.438;6.978;2023-05-28T14:41:26;3.10;;;2.80;;
2338;SDS011;1180;51.438;6.978;2023-05-28T14:43:51;2.73;;;2.50;;
2338;SDS011;1180;51.438;6.978;2023-05-28T14:46:16;5.30;;;3.40;;
2338;SDS011;1180;51.438;6.978;2023-05-28T14:48:42;3.03;;;2.80;;
2338;SDS011;1180;51.438;6.978;2023-05-28T14:51:07;4.13;;;2.70;;
2338;SDS011;1180;51.438;6.978;2023-05-28T14:53:33;4.90;;;3.53;;
2338;SDS011;1180;51.438;6.978;2023-05-28T14:55:58;4.67;;;3.10;;
2338;SDS011;1180;51.438;6.978;2023-05-28T14:58:23;6.77;;;3.90;;
2338;SDS011;1180;51.438;6.978;2023-05-28T15:00:49;6.80;;;3.63;;
2338;SDS011;1180;51.438;6.978;2023-05-28T15:03:15;5.83;;;2.83;;
2338;SDS011;1180;51.438;6.978;2023-05-28T15:05:40;5.60;;;4.00;;
2338;SDS011;1180;51.438;6.978;2023-05-28T15:08:06;4.37;;;3.77;;
2338;SDS011;1180;51.438;6.978;2023-05-28T15:10:32;4.47;;;2.80;;
2338;SDS011;1180;51.438;6.978;2023-05-28T15:12:57;5.97;;;3.13;;
2338;SDS011;1180;51.438;6.978;2023-05-28T15:15:23;5.43;;;3.20;;